Time;durP1;ratioP1;P1;durP2;ratioP2;P2;SDS_P1;SDS_P2;PMS_P1;PMS_P2;Temp;Humidity;BMP_temperature;BMP_pressure;BME280_temperature;BME280_humidity;BME280_pressure;Samples;Min_cycle;Max_cycle;Signal;HPM_P1;HPM_P2
2020/12/17 00:00:54;;;;;;;35.07;29.53;;;;;;;6.73;100.00;94824.88;4974247;28;20448;-88
2020/12/17 00:03:20;;;;;;;33.03;29.53;;;;;;;6.66;100.00;94799.97;4974034;28;20441;-86
2020/12/17 00:05:47;;;;;;;33.83;29.03;;;;;;;6.34;100.00;94809.59;4973780;28;20455;-85
2020/12/17 00:08:18;;;;;;;43.37;30.37;;;;;;;6.55;100.00;94835.00;4973831;28;20430;-84
2020/12/17 00:10:45;;;;;;;47.30;29.10;;;;;;;6.38;100.00;94809.19;4973559;28;20806;-85
2020/12/17 00:13:12;;;;;;;35.43;27.03;;;;;;;6.17;100.00;94847.69;4973704;28;20489;-85
2020/12/17 00:15:39;;;;;;;40.00;28.30;;;;;;;5.79;100.00;94802.28;4973613;28;20433;-85
2020/12/17 00:18:05;;;;;;;30.77;27.60;;;;;;;5.80;100.00;94773.19;4974121;28;20440;-85
2020/12/17 00:20:32;;;;;;;33.23;27.90;;;;;;;6.23;100.00;94821.56;4973416;28;20960;-85
2020/12/17 00:22:58;;;;;;;31.00;27.80;;;;;;;6.48;100.00;94836.50;4973293;28;20425;-85
2020/12/17 00:25:25;;;;;;;31.70;26.83;;;;;;;6.28;100.00;94851.84;4973646;28;20446;-84
2020/12/17 00:27:51;;;;;;;28.63;25.63;;;;;;;6.02;100.00;94849.78;4973705;28;20904;-85
2020/12/17 00:30:19;;;;;;;33.33;25.67;;;;;;;5.77;100.00;94818.69;4973731;28;20433;-86
2020/12/17 00:32:46;;;;;;;29.33;26.37;;;;;;;6.20;100.00;94849.97;4973337;28;20493;-85
2020/12/17 00:35:13;;;;;;;36.70;27.87;;;;;;;6.23;100.00;94846.34;4973425;28;20448;-86
2020/12/17 00:37:41;;;;;;;33.10;26.37;;;;;;;6.23;100.00;94852.25;4973668;28;20422;-86
2020/12/17 00:40:10;;;;;;;29.57;26.60;;;;;;;5.95;100.00;94800.94;4973421;28;20448;-86
2020/12/17 00:42:39;;;;;;;36.13;27.50;;;;;;;5.86;100.00;94824.75;4972676;28;20448;-87
2020/12/17 00:45:05;;;;;;;36.23;26.63;;;;;;;5.99;100.00;94848.31;4953820;29;20423;-86
2020/12/17 00:47:33;;;;;;;35.27;29.10;;;;;;;5.91;100.00;94853.28;4954317;29;20442;-86
2020/12/17 00:50:00;;;;;;;29.60;26.73;;;;;;;5.72;100.00;94852.28;4953870;29;20442;-85
2020/12/17 00:52:27;;;;;;;37.63;28.87;;;;;;;5.96;100.00;94851.94;4953100;28;21153;-85
2020/12/17 00:54:53;;;;;;;30.47;27.23;;;;;;;5.95;100.00;94862.31;4953964;29;20449;-85
2020/12/17 00:57:25;;;;;;;30.30;27.17;;;;;;;5.75;100.00;94846.13;4954390;29;20458;-85
2020/12/17 01:00:04;;;;;;;35.37;27.17;;;;;;;5.95;100.00;94880.19;4957279;28;20493;-86
2020/12/17 01:02:31;;;;;;;30.43;25.67;;;;;;;6.05;100.00;94878.44;4953872;29;20454;-86
2020/12/17 01:04:58;;;;;;;28.77;25.70;;;;;;;6.20;100.00;94864.50;4953797;29;20439;-85
2020/12/17 01:07:25;;;;;;;39.20;28.87;;;;;;;5.95;100.00;94858.00;4953919;29;20426;-86
2020/12/17 01:09:51;;;;;;;30.27;27.27;;;;;;;5.99;100.00;94861.09;4954157;29;20524;-86
2020/12/17 01:12:18;;;;;;;29.10;26.00;;;;;;;6.05;100.00;94859.75;4953706;29;20481;-84
2020/12/17 01:14:44;;;;;;;33.23;26.70;;;;;;;6.15;100.00;94870.84;4953717;29;20442;-85
2020/12/17 01:17:11;;;;;;;36.10;27.60;;;;;;;6.22;100.00;94876.22;4953867;29;20458;-85
2020/12/17 01:19:38;;;;;;;33.27;28.23;;;;;;;6.01;100.00;94845.59;4953568;29;20439;-85
2020/12/17 01:22:05;;;;;;;32.20;28.20;;;;;;;6.10;100.00;94869.59;4953388;29;20864;-85
2020/12/17 01:24:32;;;;;;;35.13;27.60;;;;;;;6.24;100.00;94871.78;4953801;29;20439;-86
2020/12/17 01:26:59;;;;;;;30.37;27.10;;;;;;;6.22;100.00;94858.31;4953960;29;20438;-85
2020/12/17 01:29:26;;;;;;;34.87;28.67;;;;;;;6.24;100.00;94853.88;4953797;29;20500;-85
2020/12/17 01:31:57;;;;;;;29.67;26.60;;;;;;;6.48;100.00;94859.53;4953842;29;20462;-85
2020/12/17 01:34:24;;;;;;;29.80;26.70;;;;;;;6.54;100.00;94871.78;4953402;29;20528;-85
2020/12/17 01:36:51;;;;;;;30.50;27.37;;;;;;;6.36;100.00;94823.84;4953950;29;20457;-84
2020/12/17 01:39:18;;;;;;;34.07;29.60;;;;;;;6.32;100.00;94791.81;4953765;29;20485;-85
2020/12/17 01:41:45;;;;;;;39.63;29.33;;;;;;;6.20;100.00;94780.94;4953035;29;20461;-85
2020/12/17 01:44:12;;;;;;;32.20;28.43;;;;;;;6.69;100.00;94838.09;4953112;29;20426;-84
2020/12/17 01:46:38;;;;;;;35.30;28.93;;;;;;;6.70;100.00;94832.03;4953489;29;20496;-84
2020/12/17 01:49:05;;;;;;;31.17;27.60;;;;;;;6.66;100.00;94825.56;4953286;29;20450;-85
2020/12/17 01:51:31;;;;;;;40.53;30.73;;;;;;;6.62;100.00;94825.03;4953349;29;20445;-85
2020/12/17 01:53:57;;;;;;;39.30;29.77;;;;;;;6.54;100.00;94812.94;4953490;29;20857;-85
2020/12/17 01:56:26;;;;;;;43.77;29.30;;;;;;;6.26;100.00;94815.38;4953840;29;20492;-85
2020/12/17 01:59:05;;;;;;;40.73;31.23;;;;;;;6.02;100.00;94794.38;4954047;28;20441;-85
2020/12/17 02:01:32;;;;;;;33.73;29.07;;;;;;;6.05;100.00;94768.50;4953407;29;20443;-85
2020/12/17 02:03:59;;;;;;;36.00;27.97;;;;;;;6.30;100.00;94825.19;4955686;28;20444;-86
2020/12/17 02:06:26;;;;;;;43.00;29.33;;;;;;;6.04;100.00;94754.13;4956799;29;20446;-84
2020/12/17 02:08:53;;;;;;;36.13;28.63;;;;;;;6.40;100.00;94816.72;4957143;29;20441;-85
2020/12/17 02:11:20;;;;;;;41.57;28.67;;;;;;;6.39;100.00;94813.34;4957149;29;20418;-84
2020/12/17 02:13:48;;;;;;;39.20;28.60;;;;;;;6.24;100.00;94812.97;4956839;29;20485;-84
2020/12/17 02:16:16;;;;;;;33.73;29.47;;;;;;;6.33;100.00;94816.44;4957071;29;20438;-85
2020/12/17 02:18:43;;;;;;;33.07;29.03;;;;;;;6.42;100.00;94809.72;4956635;29;20922;-83
2020/12/17 02:21:09;;;;;;;42.57;27.67;;;;;;;6.33;100.00;94813.09;4956590;29;20449;-84
2020/12/17 02:23:38;;;;;;;43.40;28.27;;;;;;;6.21;100.00;94818.34;4956569;29;20574;-84
2020/12/17 02:26:05;;;;;;;40.33;29.07;;;;;;;6.43;100.00;94806.19;4956870;29;20492;-83
2020/12/17 02:28:33;;;;;;;34.60;27.03;;;;;;;6.42;100.00;94814.81;4956719;29;21073;-85
2020/12/17 02:30:59;;;;;;;42.87;27.97;;;;;;;6.16;100.00;94777.81;4956491;29;20419;-84
2020/12/17 02:33:56;;;;;;;39.13;29.10;;;;;;;6.41;100.00;94810.66;4956096;29;21032;-84
2020/12/17 02:36:23;;;;;;;42.47;32.47;;;;;;;6.33;100.00;94790.06;4956602;29;20446;-86
2020/12/17 02:38:49;;;;;;;44.10;29.67;;;;;;;6.45;100.00;94806.88;4956316;29;20442;-84
2020/12/17 02:41:17;;;;;;;44.67;29.07;;;;;;;6.09;100.00;94814.31;4956696;29;20507;-84
2020/12/17 02:43:43;;;;;;;42.90;31.03;;;;;;;6.30;100.00;94809.84;4956477;29;21209;-85
2020/12/17 02:46:10;;;;;;;42.93;29.43;;;;;;;6.30;100.00;94804.75;4956397;29;20448;-85
2020/12/17 02:48:36;;;;;;;41.27;31.07;;;;;;;6.37;100.00;94814.41;4972464;28;20449;-84
2020/12/17 02:51:03;;;;;;;37.97;30.60;;;;;;;6.37;100.00;94811.84;4975657;28;20536;-85
2020/12/17 02:53:29;;;;;;;39.23;28.67;;;;;;;6.17;100.00;94840.81;4975486;28;20981;-84
2020/12/17 02:55:56;;;;;;;47.80;30.10;;;;;;;5.98;100.00;94828.78;4975473;28;20449;-84
2020/12/17 02:58:23;;;;;;;35.47;30.30;;;;;;;6.10;100.00;94821.00;4975770;28;20453;-84
2020/12/17 03:00:50;;;;;;;51.40;29.77;;;;;;;5.95;100.00;94829.06;4976037;28;20489;-84
2020/12/17 03:03:16;;;;;;;34.33;27.90;;;;;;;6.03;100.00;94833.50;4975014;28;20806;-83
2020/12/17 03:05:43;;;;;;;41.23;28.50;;;;;;;5.76;100.00;94774.41;4975414;28;20437;-85
2020/12/17 03:08:10;;;;;;;37.43;29.80;;;;;;;6.09;100.00;94845.00;4975234;28;20920;-84
2020/12/17 03:10:36;;;;;;;38.33;29.57;;;;;;;6.27;100.00;94848.47;4975244;28;20439;-84
2020/12/17 03:13:03;;;;;;;37.17;28.80;;;;;;;6.20;100.00;94849.97;4974645;28;21011;-84
2020/12/17 03:15:30;;;;;;;34.73;28.03;;;;;;;5.79;100.00;94815.06;4966837;28;20449;-84
2020/12/17 03:17:57;;;;;;;29.43;26.40;;;;;;;5.95;100.00;94849.50;4955529;29;20443;-84
2020/12/17 03:20:23;;;;;;;33.40;26.90;;;;;;;6.02;100.00;94844.69;4955639;29;20798;-84
2020/12/17 03:22:50;;;;;;;33.27;27.07;;;;;;;6.26;100.00;94853.75;4955020;29;20519;-83
2020/12/17 03:25:16;;;;;;;43.83;29.20;;;;;;;6.36;100.00;94867.31;4955245;29;20439;-84
2020/12/17 03:27:43;;;;;;;48.50;32.10;;;;;;;6.41;100.00;94861.81;4955072;29;20430;-83
2020/12/17 03:30:09;;;;;;;39.40;32.00;;;;;;;6.56;100.00;94866.53;4955140;28;20817;-84
2020/12/17 03:32:37;;;;;;;35.20;28.30;;;;;;;6.59;100.00;94864.50;4957429;28;21038;-83
2020/12/17 03:35:04;;;;;;;38.70;28.33;;;;;;;6.59;100.00;94867.06;4955137;29;20435;-83
2020/12/17 03:37:30;;;;;;;40.73;28.17;;;;;;;6.37;100.00;94863.03;4954577;29;20453;-82
2020/12/17 03:39:57;;;;;;;37.13;28.50;;;;;;;6.17;100.00;94881.75;4954650;29;21037;-84
2020/12/17 03:42:23;;;;;;;37.10;28.97;;;;;;;6.13;100.00;94875.28;4955162;29;20525;-84
2020/12/17 03:44:50;;;;;;;47.03;28.27;;;;;;;5.99;100.00;94868.75;4955202;29;20442;-84
2020/12/17 03:47:17;;;;;;;47.77;27.80;;;;;;;5.81;100.00;94871.97;4955423;29;20508;-84
2020/12/17 03:49:44;;;;;;;50.63;29.70;;;;;;;5.86;100.00;94876.69;4954973;29;20454;-84
2020/12/17 03:52:11;;;;;;;34.47;27.30;;;;;;;6.00;100.00;94883.19;4955209;29;20450;-84
2020/12/17 03:54:38;;;;;;;35.77;27.50;;;;;;;6.10;100.00;94893.44;4954800;29;20470;-83
2020/12/17 03:57:05;;;;;;;35.67;28.00;;;;;;;6.03;100.00;94905.91;4955128;29;20466;-83
2020/12/17 03:59:31;;;;;;;53.23;28.30;;;;;;;5.91;100.00;94894.19;4955394;28;20477;-83
2020/12/17 04:01:57;;;;;;;39.90;27.37;;;;;;;6.04;100.00;94896.50;4954693;29;20516;-84
2020/12/17 04:04:24;;;;;;;34.10;28.10;;;;;;;5.84;100.00;94873.44;4955012;29;20437;-83
2020/12/17 04:06:52;;;;;;;47.47;29.43;;;;;;;5.94;100.00;94899.03;4955129;29;20450;-83
2020/12/17 04:09:18;;;;;;;37.97;27.40;;;;;;;6.15;100.00;94888.75;4954664;29;20442;-83
2020/12/17 04:11:45;;;;;;;41.40;29.70;;;;;;;5.74;100.00;94893.88;4954926;29;20442;-84
2020/12/17 04:14:11;;;;;;;40.37;29.17;;;;;;;6.00;100.00;94901.06;4954365;29;20494;-84
2020/12/17 04:16:37;;;;;;;44.50;31.60;;;;;;;5.55;100.00;94884.41;4954740;29;20434;-83
2020/12/17 04:19:04;;;;;;;47.23;29.30;;;;;;;5.99;100.00;94903.75;4954435;29;20457;-83
2020/12/17 04:21:30;;;;;;;52.00;32.27;;;;;;;6.12;100.00;94903.53;4953790;29;20450;-82
2020/12/17 04:23:58;;;;;;;57.80;34.07;;;;;;;6.02;100.00;94901.75;4954341;29;20869;-83
2020/12/17 04:26:24;;;;;;;39.23;30.10;;;;;;;6.27;100.00;94897.06;4953833;28;20883;-83
2020/12/17 04:28:51;;;;;;;38.50;28.70;;;;;;;6.45;100.00;94898.97;4968633;28;20460;-83
2020/12/17 04:31:17;;;;;;;51.13;29.33;;;;;;;6.35;100.00;94870.03;4973397;28;20449;-83
2020/12/17 04:33:43;;;;;;;43.47;28.33;;;;;;;6.44;100.00;94906.78;4973219;28;20488;-84
2020/12/17 04:36:10;;;;;;;46.23;30.83;;;;;;;6.58;100.00;94885.94;4973892;28;20447;-84
2020/12/17 04:38:36;;;;;;;37.87;29.37;;;;;;;6.59;100.00;94874.72;4973586;28;20456;-84
2020/12/17 04:41:05;;;;;;;38.20;29.07;;;;;;;6.60;100.00;94866.13;4973409;28;20844;-84
2020/12/17 04:43:33;;;;;;;40.63;28.57;;;;;;;6.66;100.00;94872.44;4973445;28;20434;-85
2020/12/17 04:46:04;;;;;;;31.40;27.60;;;;;;;6.51;100.00;94861.81;4973043;28;20437;-84
2020/12/17 04:48:32;;;;;;;39.83;28.67;;;;;;;6.58;100.00;94857.78;4963522;28;20889;-84
2020/12/17 04:50:59;;;;;;;37.23;28.47;;;;;;;6.51;100.00;94838.78;4954122;29;20438;-83
2020/12/17 04:53:26;;;;;;;41.87;30.07;;;;;;;6.10;100.00;94793.72;4954485;29;21004;-83
2020/12/17 04:55:57;;;;;;;34.87;29.87;;;;;;;6.59;100.00;94841.47;4954426;29;20460;-83
2020/12/17 04:58:28;;;;;;;37.67;28.00;;;;;;;6.40;100.00;94845.69;4953988;29;20941;-83
2020/12/17 05:00:55;;;;;;;36.43;27.63;;;;;;;6.36;100.00;94840.97;4954570;28;20488;-83
2020/12/17 05:03:23;;;;;;;37.63;29.50;;;;;;;6.17;100.00;94837.44;4953808;29;20430;-83
2020/12/17 05:05:51;;;;;;;43.93;27.30;;;;;;;6.04;100.00;94838.50;4954076;29;21195;-83
2020/12/17 05:08:19;;;;;;;34.63;28.07;;;;;;;5.98;100.00;94846.69;4953527;29;20458;-84
2020/12/17 05:10:46;;;;;;;46.50;30.00;;;;;;;6.30;100.00;94837.19;4954029;29;20812;-82
2020/12/17 05:13:15;;;;;;;413.00;176.27;;;;;;;6.40;100.00;94835.44;4953669;29;20981;-87
2020/12/17 05:15:44;;;;;;;112.87;58.17;;;;;;;6.59;100.00;94838.91;4953719;29;20458;-85
2020/12/17 05:18:10;;;;;;;53.43;31.57;;;;;;;6.60;100.00;94842.28;4954016;29;20492;-86
2020/12/17 05:20:38;;;;;;;41.37;27.13;;;;;;;6.11;100.00;94812.41;4953772;29;20433;-84
2020/12/17 05:23:05;;;;;;;42.07;29.43;;;;;;;6.52;100.00;94843.75;4953835;29;20449;-85
2020/12/17 05:25:33;;;;;;;35.63;28.80;;;;;;;6.30;100.00;94830.31;4953857;29;20426;-87
2020/12/17 05:28:01;;;;;;;45.17;30.03;;;;;;;6.55;100.00;94829.06;4953213;29;20434;-88
2020/12/17 05:30:33;;;;;;;493.90;257.03;;;;;;;6.56;100.00;94823.84;4953655;29;20437;-88
2020/12/17 05:33:02;;;;;;;97.87;59.13;;;;;;;6.67;100.00;94832.31;4953515;29;20984;-85
2020/12/17 05:35:33;;;;;;;59.17;33.47;;;;;;;6.72;100.00;94825.81;4953076;28;20461;-77
2020/12/17 05:38:03;;;;;;;62.97;32.40;;;;;;;6.67;100.00;94822.88;4953675;28;20450;-78
2020/12/17 05:40:36;;;;;;;44.80;30.80;;;;;;;6.66;100.00;94836.59;4956671;29;20430;-76
2020/12/17 05:43:03;;;;;;;86.73;43.87;;;;;;;6.71;100.00;94834.44;4968900;28;20824;-71
2020/12/17 05:45:30;;;;;;;214.70;100.30;;;;;;;6.51;100.00;94842.16;4974961;28;20437;-79
2020/12/17 05:48:14;;;;;;;69.80;38.60;;;;;;;6.48;100.00;94855.22;4973875;28;20448;-77
2020/12/17 05:50:56;;;;;;;62.27;33.60;;;;;;;6.64;100.00;94858.97;4975626;28;20507;-78
2020/12/17 05:53:24;;;;;;;49.70;31.00;;;;;;;6.71;100.00;94859.22;4975403;28;20476;-76
2020/12/17 05:56:01;;;;;;;39.50;31.10;;;;;;;6.81;100.00;94856.66;4975145;28;20457;-76
2020/12/17 05:58:37;;;;;;;48.30;32.77;;;;;;;6.81;100.00;94862.56;4975679;28;20418;-81
2020/12/17 06:01:12;;;;;;;34.53;28.40;;;;;;;6.87;100.00;94862.06;4975599;28;20918;-76
2020/12/17 06:03:39;;;;;;;40.13;29.30;;;;;;;6.74;100.00;94875.13;4974279;28;20444;-75
2020/12/17 06:06:07;;;;;;;42.27;28.60;;;;;;;6.66;100.00;94851.16;4974558;28;20445;-76
2020/12/17 06:08:36;;;;;;;35.37;29.40;;;;;;;6.57;100.00;94857.91;4963162;28;20493;-82
2020/12/17 06:11:04;;;;;;;43.70;28.13;;;;;;;6.60;100.00;94861.00;4955242;29;20956;-75
2020/12/17 06:13:35;;;;;;;182.23;94.60;;;;;;;6.32;100.00;94865.19;4955333;29;20581;-76
2020/12/17 06:16:04;;;;;;;72.93;40.60;;;;;;;6.39;100.00;94849.16;4954981;29;20442;-75
2020/12/17 06:18:38;;;;;;;48.07;30.20;;;;;;;6.35;100.00;94858.06;4955769;28;20450;-72
2020/12/17 06:21:10;;;;;;;36.07;27.60;;;;;;;6.68;100.00;94857.75;4972436;28;21188;-77
2020/12/17 06:23:38;;;;;;;40.00;27.87;;;;;;;6.70;100.00;94848.19;4972262;28;20503;-80
2020/12/17 06:26:08;;;;;;;36.93;27.70;;;;;;;6.79;100.00;94848.31;4973748;28;20445;-76
2020/12/17 06:28:39;;;;;;;40.43;28.97;;;;;;;6.81;100.00;94851.56;4972966;28;20460;-75
2020/12/17 06:31:05;;;;;;;44.13;30.17;;;;;;;6.77;100.00;94845.88;4972813;28;20437;-76
2020/12/17 06:33:36;;;;;;;33.13;26.60;;;;;;;6.74;100.00;94852.06;4972918;28;20480;-76
2020/12/17 06:36:07;;;;;;;39.93;29.80;;;;;;;6.83;100.00;94853.00;4970550;28;20967;-74
2020/12/17 06:38:36;;;;;;;42.33;26.80;;;;;;;6.93;100.00;94845.31;4953940;29;20987;-74
2020/12/17 06:41:15;;;;;;;57.53;31.40;;;;;;;6.99;100.00;94852.44;4954310;29;20458;-74
2020/12/17 06:43:42;;;;;;;45.03;33.90;;;;;;;6.99;100.00;94849.06;4955799;28;20446;-75
2020/12/17 06:46:30;;;;;;;48.87;32.57;;;;;;;7.07;100.00;94838.13;4953767;29;20449;-75
2020/12/17 06:48:57;;;;;;;65.03;31.67;;;;;;;7.05;100.00;94840.84;4953626;28;20518;-75
2020/12/17 06:51:37;;;;;;;42.10;29.97;;;;;;;7.07;100.00;94833.00;4953312;29;20457;-75
2020/12/17 06:54:07;;;;;;;55.33;32.20;;;;;;;6.95;100.00;94833.19;4958929;28;20487;-75
2020/12/17 06:56:37;;;;;;;71.00;35.90;;;;;;;6.95;100.00;94840.84;4973554;28;20457;-75
2020/12/17 06:59:26;;;;;;;63.50;35.43;;;;;;;6.99;100.00;94838.81;4973691;28;20441;-75
2020/12/17 07:01:54;;;;;;;55.13;35.57;;;;;;;6.94;100.00;94833.31;4993272;28;20448;-75
2020/12/17 07:04:42;;;;;;;76.70;38.20;;;;;;;6.86;100.00;94844.25;4993266;28;20507;-75
2020/12/17 07:07:19;;;;;;;62.67;35.30;;;;;;;6.82;100.00;94841.16;4976604;28;20924;-74
2020/12/17 07:09:48;;;;;;;58.30;34.10;;;;;;;6.85;100.00;94840.91;4972848;28;20442;-74
2020/12/17 07:12:43;;;;;;;49.07;33.67;;;;;;;6.86;100.00;94837.38;4974707;28;20901;-73
2020/12/17 07:15:37;;;;;;;63.17;35.83;;;;;;;6.82;100.00;94851.41;4973513;28;20523;-74
2020/12/17 07:18:24;;;;;;;45.30;31.60;;;;;;;6.93;100.00;94836.81;4964323;28;20457;-75
2020/12/17 07:20:53;;;;;;;77.13;34.83;;;;;;;6.88;100.00;94837.22;5008753;28;20446;-74
2020/12/17 07:23:20;;;;;;;59.47;33.73;;;;;;;6.91;100.00;94844.66;5011824;28;20435;-75
2020/12/17 07:25:52;;;;;;;51.37;33.50;;;;;;;6.85;100.00;94850.31;4982343;28;20453;-74
2020/12/17 07:28:26;;;;;;;55.07;33.53;;;;;;;6.97;100.00;94844.09;4973275;28;20881;-75
2020/12/17 07:30:56;;;;;;;57.27;35.73;;;;;;;6.82;100.00;94845.47;4978857;28;20453;-76
2020/12/17 07:33:44;;;;;;;68.20;36.67;;;;;;;6.84;100.00;94830.78;4991868;28;20542;-76
2020/12/17 07:36:12;;;;;;;81.37;42.33;;;;;;;6.99;100.00;94846.50;4992169;28;20448;-75
2020/12/17 07:38:40;;;;;;;62.03;40.30;;;;;;;7.06;100.00;94845.00;4992641;28;20443;-75
2020/12/17 07:41:25;;;;;;;76.77;41.90;;;;;;;7.07;100.00;94848.38;4992157;28;20543;-76
2020/12/17 07:43:52;;;;;;;81.37;41.20;;;;;;;7.10;100.00;94843.78;4991922;28;20904;-73
2020/12/17 07:46:34;;;;;;;75.57;42.00;;;;;;;7.10;100.00;94843.00;4991913;28;20449;-73
2020/12/17 07:49:02;;;;;;;71.47;41.90;;;;;;;7.16;100.00;94849.28;4992099;28;20440;-74
2020/12/17 07:51:33;;;;;;;68.47;36.40;;;;;;;7.16;100.00;94857.78;4991673;28;20437;-75
2020/12/17 07:54:09;;;;;;;88.03;41.93;;;;;;;7.16;100.00;94851.84;4992363;28;20476;-76
2020/12/17 07:56:36;;;;;;;77.03;42.77;;;;;;;7.10;100.00;94860.91;4991703;28;20525;-75
2020/12/17 07:59:06;;;;;;;79.33;42.17;;;;;;;7.03;100.00;94863.22;4991507;28;20945;-76
2020/12/17 08:01:33;;;;;;;51.60;35.60;;;;;;;7.15;100.00;94861.28;4974940;28;20500;-76
2020/12/17 08:04:00;;;;;;;62.13;35.70;;;;;;;7.20;100.00;94868.56;4972113;28;20429;-76
2020/12/17 08:06:29;;;;;;;63.47;36.83;;;;;;;7.15;100.00;94863.84;4972524;28;20437;-76
2020/12/17 08:08:57;;;;;;;65.80;36.07;;;;;;;6.95;100.00;94868.22;4972080;28;20483;-77
2020/12/17 08:11:25;;;;;;;64.60;36.10;;;;;;;7.01;100.00;94869.44;4972413;28;20441;-76
2020/12/17 08:14:01;;;;;;;65.43;32.40;;;;;;;6.95;100.00;94871.59;4972026;28;20476;-76
2020/12/17 08:16:29;;;;;;;49.80;31.67;;;;;;;6.88;100.00;94878.19;4972281;28;20831;-77
2020/12/17 08:18:58;;;;;;;57.10;33.40;;;;;;;6.89;100.00;94882.38;4971441;28;20465;-77
2020/12/17 08:21:28;;;;;;;46.67;31.57;;;;;;;6.88;100.00;94883.31;4971915;28;20838;-77
2020/12/17 08:23:55;;;;;;;43.67;30.53;;;;;;;6.96;100.00;94874.97;4972302;28;20844;-76
2020/12/17 08:26:24;;;;;;;35.73;29.93;;;;;;;7.12;100.00;94882.06;4972344;28;20457;-79
2020/12/17 08:28:51;;;;;;;42.10;31.80;;;;;;;7.23;100.00;94883.66;4972632;28;20429;-78
2020/12/17 08:31:21;;;;;;;53.63;33.63;;;;;;;7.25;100.00;94883.50;4972595;28;20442;-78
2020/12/17 08:33:49;;;;;;;51.80;31.90;;;;;;;7.31;100.00;94882.94;4972006;28;20543;-78
2020/12/17 08:36:19;;;;;;;44.90;31.27;;;;;;;7.31;100.00;94876.06;4972388;28;20522;-76
2020/12/17 08:38:57;;;;;;;54.10;31.73;;;;;;;7.21;100.00;94855.59;4972461;28;20986;-76
2020/12/17 08:41:28;;;;;;;34.93;28.57;;;;;;;7.48;100.00;94880.59;4971785;28;20437;-76
2020/12/17 08:43:57;;;;;;;40.47;28.83;;;;;;;7.48;100.00;94878.03;4972175;28;20445;-76
2020/12/17 08:46:27;;;;;;;39.40;29.03;;;;;;;7.55;100.00;94872.19;4971801;28;20455;-77
2020/12/17 08:48:57;;;;;;;37.93;28.87;;;;;;;7.47;100.00;94866.97;4971641;28;20422;-77
2020/12/17 08:51:24;;;;;;;34.20;28.20;;;;;;;7.38;100.00;94868.63;4972345;28;20438;-77
2020/12/17 08:53:50;;;;;;;32.40;28.13;;;;;;;7.46;100.00;94865.34;4972073;28;20567;-77
2020/12/17 08:56:18;;;;;;;44.13;30.07;;;;;;;7.57;100.00;94859.25;4972681;28;20469;-80
2020/12/17 08:58:51;;;;;;;32.23;28.50;;;;;;;7.66;100.00;94855.03;4972440;28;20523;-76
2020/12/17 09:01:23;;;;;;;35.43;28.20;;;;;;;7.27;100.00;94863.69;4972797;28;20485;-77
2020/12/17 09:03:51;;;;;;;34.00;27.60;;;;;;;7.36;100.00;94855.16;4971183;28;20434;-77
2020/12/17 09:06:23;;;;;;;41.97;28.57;;;;;;;7.43;100.00;94853.66;4971052;28;20452;-78
2020/12/17 09:08:49;;;;;;;29.13;26.07;;;;;;;7.42;100.00;94848.66;4971463;28;20437;-77
2020/12/17 09:11:29;;;;;;;33.97;30.00;;;;;;;7.36;100.00;94851.78;4971051;28;20453;-76
2020/12/17 09:14:00;;;;;;;42.37;28.87;;;;;;;7.49;100.00;94846.31;4970951;28;20553;-76
2020/12/17 09:16:29;;;;;;;33.03;28.63;;;;;;;6.91;100.00;94854.88;4971037;28;20513;-79
2020/12/17 09:18:58;;;;;;;35.23;28.03;;;;;;;6.70;100.00;94863.53;4971553;28;20445;-79
2020/12/17 09:21:24;;;;;;;30.70;27.50;;;;;;;6.66;100.00;94854.53;4971879;28;20433;-76
2020/12/17 09:23:58;;;;;;;30.87;25.60;;;;;;;6.73;100.00;94865.03;4971775;28;20492;-75
2020/12/17 09:26:24;;;;;;;38.77;29.90;;;;;;;6.87;100.00;94874.03;4971361;28;20444;-76
2020/12/17 09:28:56;;;;;;;35.03;28.63;;;;;;;7.11;100.00;94877.88;4971128;28;20540;-78
2020/12/17 09:31:34;;;;;;;40.27;28.97;;;;;;;7.20;100.00;94866.00;4971318;28;20449;-79
2020/12/17 09:34:19;;;;;;;34.67;27.07;;;;;;;7.17;100.00;94881.66;4971954;28;20552;-78
2020/12/17 09:36:56;;;;;;;36.03;28.27;;;;;;;7.12;100.00;94891.50;4972162;28;20429;-77
2020/12/17 09:39:22;;;;;;;33.50;27.90;;;;;;;6.96;100.00;94892.88;4971815;28;20433;-74
2020/12/17 09:41:54;;;;;;;32.33;25.63;;;;;;;6.61;100.00;94877.16;4971640;28;20485;-77
2020/12/17 09:44:31;;;;;;;45.27;29.10;;;;;;;6.84;100.00;94882.78;4971891;28;20425;-78
2020/12/17 09:46:58;;;;;;;41.13;28.97;;;;;;;7.05;100.00;94897.19;4971529;28;20437;-78
2020/12/17 09:49:31;;;;;;;40.30;30.40;;;;;;;7.15;100.00;94916.81;4971195;28;20457;-78
2020/12/17 09:52:02;;;;;;;47.13;30.00;;;;;;;7.48;100.00;94908.78;4970624;28;20444;-78
2020/12/17 09:54:29;;;;;;;31.90;27.13;;;;;;;7.60;100.00;94904.28;4971043;28;20469;-78
2020/12/17 09:57:10;;;;;;;35.00;28.60;;;;;;;7.76;100.00;94911.38;4971472;28;20515;-79
2020/12/17 09:59:38;;;;;;;40.60;26.83;;;;;;;7.79;100.00;94899.09;4971861;28;20459;-80
2020/12/17 10:02:06;;;;;;;46.70;28.90;;;;;;;7.96;100.00;94893.31;5009399;28;20483;-79
2020/12/17 10:04:35;;;;;;;34.17;29.73;;;;;;;8.00;100.00;94871.56;5009986;28;20505;-82
2020/12/17 10:07:02;;;;;;;34.60;30.00;;;;;;;8.16;100.00;94870.91;5010146;28;20442;-79
2020/12/17 10:09:29;;;;;;;38.23;30.40;;;;;;;8.18;100.00;94860.50;5009787;28;20949;-76
2020/12/17 10:11:57;;;;;;;42.77;31.10;;;;;;;8.13;100.00;94837.88;5009258;28;20479;-74
2020/12/17 10:14:24;;;;;;;42.70;32.80;;;;;;;8.09;100.00;94850.16;5009142;28;20483;-75
2020/12/17 10:16:57;;;;;;;52.77;30.97;;;;;;;8.15;100.00;94837.72;5009208;28;20452;-74
2020/12/17 10:19:24;;;;;;;43.83;32.73;;;;;;;7.95;100.00;94825.84;5008938;28;20436;-75
2020/12/17 10:21:51;;;;;;;45.23;33.60;;;;;;;8.07;100.00;94813.59;5008660;28;20942;-74
2020/12/17 10:24:26;;;;;;;33.40;29.47;;;;;;;8.00;100.00;94799.75;5009496;28;20485;-74
2020/12/17 10:26:54;;;;;;;39.77;30.57;;;;;;;8.23;100.00;94807.00;5012443;28;20437;-74
2020/12/17 10:29:20;;;;;;;42.20;31.03;;;;;;;8.16;100.00;94790.56;5012758;28;20435;-74
2020/12/17 10:31:47;;;;;;;34.30;28.70;;;;;;;8.30;100.00;94784.94;5012381;28;20461;-75
2020/12/17 10:34:15;;;;;;;39.07;31.07;;;;;;;8.38;100.00;94785.94;5012902;28;20463;-75
2020/12/17 10:36:41;;;;;;;38.30;29.37;;;;;;;8.34;100.00;94788.81;5012291;28;20428;-74
2020/12/17 10:39:09;;;;;;;34.70;30.50;;;;;;;8.21;100.00;94784.06;5011792;28;21065;-76
2020/12/17 10:41:37;;;;;;;41.87;29.80;;;;;;;8.18;100.00;94788.66;5012173;28;20424;-76
2020/12/17 10:44:04;;;;;;;42.67;30.80;;;;;;;8.00;100.00;94786.91;5012051;28;20456;-77
2020/12/17 10:46:31;;;;;;;34.17;30.23;;;;;;;7.74;100.00;94774.81;5013037;28;20440;-78
2020/12/17 10:48:59;;;;;;;41.33;29.73;;;;;;;7.88;100.00;94776.91;5013485;28;20494;-77
2020/12/17 10:51:26;;;;;;;31.00;27.90;;;;;;;7.89;100.00;94783.63;5012676;28;20535;-75
2020/12/17 10:53:54;;;;;;;37.80;28.10;;;;;;;8.02;100.00;94783.25;5012486;28;20498;-79
2020/12/17 10:56:24;;;;;;;35.27;28.93;;;;;;;8.07;100.00;94770.00;5013177;28;20466;-77
2020/12/17 10:58:51;;;;;;;35.93;27.97;;;;;;;8.42;100.00;94785.47;5012145;28;20530;-76
2020/12/17 11:01:24;;;;;;;37.80;28.40;;;;;;;8.38;100.00;94783.38;5011542;28;20549;-76
2020/12/17 11:03:52;;;;;;;31.80;28.23;;;;;;;8.47;100.00;94759.38;5012512;28;20482;-77
2020/12/17 11:06:21;;;;;;;36.20;29.07;;;;;;;8.15;100.00;94764.13;5012690;28;20439;-76
2020/12/17 11:08:47;;;;;;;34.70;29.43;;;;;;;8.13;100.00;94769.38;5012847;28;20436;-76
2020/12/17 11:11:15;;;;;;;38.67;30.53;;;;;;;8.21;100.00;94762.72;5013670;28;20891;-78
2020/12/17 11:13:45;;;;;;;32.50;28.67;;;;;;;8.16;100.00;94772.63;5011758;28;20475;-77
2020/12/17 11:16:11;;;;;;;44.87;31.33;;;;;;;8.32;100.00;94759.94;5012638;28;20483;-76
2020/12/17 11:18:41;;;;;;;53.17;32.03;;;;;;;8.29;100.00;94757.63;5011761;28;20443;-77
2020/12/17 11:21:08;;;;;;;36.67;29.17;;;;;;;8.15;100.00;94761.56;5011666;28;20440;-75
2020/12/17 11:23:35;;;;;;;41.53;27.90;;;;;;;7.84;100.00;94778.13;5011419;28;20446;-75
2020/12/17 11:26:02;;;;;;;35.93;28.00;;;;;;;7.62;100.00;94762.22;5011725;28;20547;-75